To NAV CANADA Home Page Login to a new session Search on AWWS site Feedback and Comments Disclaimer Vers la page française équivalente Tips FAQ What's new on the site To the Forecasts and Observations / NOTAM section To "File a Flight Plan" website Publications and other links Update of the User's profile FIC Telephone Numbers My Weather Data Folder Route Weather Data Regional Weather Data Local Weather Data To the Forecasts and Observations / NOTAM section
Request Generated 05/04/2016 at 21:12:07 UTC . Weather information available at that time is displayed.

METAR/TAF

ISLAND LAKE/MB    

METAR CYIV 042100Z 18011G17KT 160V220 15SM FEW050 SCT075 OVC250
15/M06 A2983 RMK SC2AC2CI4 PRESFR SLP115 DENSITY ALT 1000FT=
METAR CYIV 042000Z 20009G15KT 130V230 15SM BKN050 OVC250 13/M07 A2990
RMK SC6CI2 SLP137=
METAR CYIV 041900Z 11004KT 070V160 15SM BKN050 11/M05 A2995 RMK SC7
SLP154=

TAF CYIV 041838Z 0419/0507 15006KT P6SM SCT050 SCT250
FM042000 17008KT P6SM SCT090
BECMG 0422/0424 22010KT
RMK NXT FCST BY 050100Z=
Your time UTC time
Weather data provided by Environment Canada and NAV CANADA